sensor_id;sensor_type;location;lat;lon;timestamp;P1;durP1;ratioP1;P2;durP2;ratioP2
66966;SDS011;53900;51.468;-2.586;2022-10-30T00:02:24;21.20;;;3.20;;
66966;SDS011;53900;51.468;-2.586;2022-10-30T00:04:49;15.77;;;2.30;;
66966;SDS011;53900;51.468;-2.586;2022-10-30T00:07:15;22.40;;;3.83;;
66966;SDS011;53900;51.468;-2.586;2022-10-30T00:09:40;19.85;;;3.17;;
66966;SDS011;53900;51.468;-2.586;2022-10-30T00:12:05;26.10;;;3.45;;
66966;SDS011;53900;51.468;-2.586;2022-10-30T00:14:31;24.05;;;3.03;;
66966;SDS011;53900;51.468;-2.586;2022-10-30T00:16:56;19.10;;;3.08;;
66966;SDS011;53900;51.468;-2.586;2022-10-30T00:19:21;24.35;;;4.63;;
66966;SDS011;53900;51.468;-2.586;2022-10-30T00:21:47;23.88;;;3.60;;
66966;SDS011;53900;51.468;-2.586;2022-10-30T00:24:12;23.45;;;3.42;;
66966;SDS011;53900;51.468;-2.586;2022-10-30T00:26:38;17.02;;;2.78;;
66966;SDS011;53900;51.468;-2.586;2022-10-30T00:29:03;21.67;;;3.42;;
66966;SDS011;53900;51.468;-2.586;2022-10-30T00:31:28;24.70;;;3.38;;
66966;SDS011;53900;51.468;-2.586;2022-10-30T00:33:54;20.42;;;3.50;;
66966;SDS011;53900;51.468;-2.586;2022-10-30T00:36:20;17.30;;;2.72;;
66966;SDS011;53900;51.468;-2.586;2022-10-30T00:38:46;19.73;;;2.78;;
66966;SDS011;53900;51.468;-2.586;2022-10-30T00:41:15;27.42;;;3.38;;
66966;SDS011;53900;51.468;-2.586;2022-10-30T00:43:41;22.55;;;3.65;;
66966;SDS011;53900;51.468;-2.586;2022-10-30T00:48:51;16.25;;;2.95;;
66966;SDS011;53900;51.468;-2.586;2022-10-30T00:51:20;17.83;;;2.78;;
66966;SDS011;53900;51.468;-2.586;2022-10-30T00:53:46;24.08;;;3.05;;
66966;SDS011;53900;51.468;-2.586;2022-10-30T00:56:12;18.83;;;3.10;;
66966;SDS011;53900;51.468;-2.586;2022-10-30T00:58:41;21.10;;;2.90;;
66966;SDS011;53900;51.468;-2.586;2022-10-30T01:01:12;21.95;;;3.45;;
66966;SDS011;53900;51.468;-2.586;2022-10-30T01:03:41;17.38;;;2.33;;
66966;SDS011;53900;51.468;-2.586;2022-10-30T01:06:07;17.70;;;2.63;;
66966;SDS011;53900;51.468;-2.586;2022-10-30T01:08:34;17.13;;;2.88;;
66966;SDS011;53900;51.468;-2.586;2022-10-30T01:11:02;20.70;;;3.25;;
66966;SDS011;53900;51.468;-2.586;2022-10-30T01:13:28;22.48;;;3.17;;
66966;SDS011;53900;51.468;-2.586;2022-10-30T01:24:48;25.55;;;3.03;;
66966;SDS011;53900;51.468;-2.586;2022-10-30T01:35:46;17.65;;;2.55;;
66966;SDS011;53900;51.468;-2.586;2022-10-30T01:40:48;24.88;;;3.10;;
66966;SDS011;53900;51.468;-2.586;2022-10-30T01:43:14;19.73;;;2.90;;
66966;SDS011;53900;51.468;-2.586;2022-10-30T02:02:01;19.65;;;3.88;;
66966;SDS011;53900;51.468;-2.586;2022-10-30T02:04:26;18.85;;;3.33;;
66966;SDS011;53900;51.468;-2.586;2022-10-30T02:06:52;18.23;;;2.85;;
66966;SDS011;53900;51.468;-2.586;2022-10-30T02:09:17;23.48;;;3.00;;
66966;SDS011;53900;51.468;-2.586;2022-10-30T02:11:43;22.67;;;3.42;;
66966;SDS011;53900;51.468;-2.586;2022-10-30T02:14:10;22.00;;;3.15;;
66966;SDS011;53900;51.468;-2.586;2022-10-30T02:16:38;19.05;;;2.95;;
66966;SDS011;53900;51.468;-2.586;2022-10-30T02:19:09;15.95;;;2.83;;
66966;SDS011;53900;51.468;-2.586;2022-10-30T02:21:34;23.08;;;3.17;;
66966;SDS011;53900;51.468;-2.586;2022-10-30T02:23:59;20.25;;;2.70;;
66966;SDS011;53900;51.468;-2.586;2022-10-30T02:26:25;21.00;;;2.95;;
66966;SDS011;53900;51.468;-2.586;2022-10-30T02:28:50;26.48;;;3.17;;
66966;SDS011;53900;51.468;-2.586;2022-10-30T02:31:15;22.35;;;2.72;;
66966;SDS011;53900;51.468;-2.586;2022-10-30T02:33:45;20.55;;;2.88;;
66966;SDS011;53900;51.468;-2.586;2022-10-30T02:36:10;17.60;;;2.53;;
66966;SDS011;53900;51.468;-2.586;2022-10-30T02:38:36;20.17;;;3.00;;
66966;SDS011;53900;51.468;-2.586;2022-10-30T02:41:01;23.30;;;4.18;;
66966;SDS011;53900;51.468;-2.586;2022-10-30T02:43:26;31.85;;;3.50;;
66966;SDS011;53900;51.468;-2.586;2022-10-30T02:45:52;24.55;;;3.00;;
66966;SDS011;53900;51.468;-2.586;2022-10-30T02:48:17;21.77;;;2.78;;
66966;SDS011;53900;51.468;-2.586;2022-10-30T02:50:43;22.42;;;3.72;;
66966;SDS011;53900;51.468;-2.586;2022-10-30T02:53:08;22.08;;;2.63;;
66966;SDS011;53900;51.468;-2.586;2022-10-30T02:55:33;24.02;;;3.28;;
66966;SDS011;53900;51.468;-2.586;2022-10-30T02:57:59;21.10;;;2.65;;
66966;SDS011;53900;51.468;-2.586;2022-10-30T03:00:24;28.02;;;2.60;;
66966;SDS011;53900;51.468;-2.586;2022-10-30T03:02:55;25.85;;;3.63;;
66966;SDS011;53900;51.468;-2.586;2022-10-30T03:05:21;22.63;;;2.67;;
66966;SDS011;53900;51.468;-2.586;2022-10-30T03:07:47;25.45;;;3.92;;
66966;SDS011;53900;51.468;-2.586;2022-10-30T03:10:13;21.73;;;2.90;;
66966;SDS011;53900;51.468;-2.586;2022-10-30T03:12:39;17.63;;;3.08;;
66966;SDS011;53900;51.468;-2.586;2022-10-30T03:15:04;24.88;;;3.75;;
66966;SDS011;53900;51.468;-2.586;2022-10-30T03:17:30;15.27;;;2.80;;
66966;SDS011;53900;51.468;-2.586;2022-10-30T03:19:55;18.08;;;2.70;;
66966;SDS011;53900;51.468;-2.586;2022-10-30T03:22:21;17.50;;;2.97;;
66966;SDS011;53900;51.468;-2.586;2022-10-30T03:24:46;18.70;;;3.10;;
66966;SDS011;53900;51.468;-2.586;2022-10-30T03:27:12;15.70;;;3.00;;
66966;SDS011;53900;51.468;-2.586;2022-10-30T03:29:37;17.88;;;3.25;;
66966;SDS011;53900;51.468;-2.586;2022-10-30T03:32:03;21.45;;;3.53;;
66966;SDS011;53900;51.468;-2.586;2022-10-30T03:34:28;21.85;;;3.40;;
66966;SDS011;53900;51.468;-2.586;2022-10-30T03:36:54;19.60;;;3.33;;
66966;SDS011;53900;51.468;-2.586;2022-10-30T03:39:19;19.58;;;2.40;;
66966;SDS011;53900;51.468;-2.586;2022-10-30T03:41:44;17.17;;;2.33;;
66966;SDS011;53900;51.468;-2.586;2022-10-30T03:44:10;21.63;;;2.78;;
66966;SDS011;53900;51.468;-2.586;2022-10-30T03:46:35;25.63;;;3.22;;
66966;SDS011;53900;51.468;-2.586;2022-10-30T03:49:02;16.63;;;3.47;;
66966;SDS011;53900;51.468;-2.586;2022-10-30T03:51:27;16.50;;;2.75;;
66966;SDS011;53900;51.468;-2.586;2022-10-30T03:53:52;16.20;;;2.58;;
66966;SDS011;53900;51.468;-2.586;2022-10-30T03:56:18;15.63;;;2.63;;
66966;SDS011;53900;51.468;-2.586;2022-10-30T03:58:44;21.20;;;2.90;;
66966;SDS011;53900;51.468;-2.586;2022-10-30T04:01:09;12.68;;;2.58;;
66966;SDS011;53900;51.468;-2.586;2022-10-30T04:03:35;19.50;;;2.90;;
66966;SDS011;53900;51.468;-2.586;2022-10-30T04:06:00;18.08;;;2.83;;
66966;SDS011;53900;51.468;-2.586;2022-10-30T04:08:26;19.70;;;3.20;;
66966;SDS011;53900;51.468;-2.586;2022-10-30T04:10:51;12.93;;;2.22;;
66966;SDS011;53900;51.468;-2.586;2022-10-30T04:13:17;26.35;;;3.13;;
66966;SDS011;53900;51.468;-2.586;2022-10-30T04:15:44;18.40;;;3.00;;
66966;SDS011;53900;51.468;-2.586;2022-10-30T04:18:12;29.45;;;3.97;;
66966;SDS011;53900;51.468;-2.586;2022-10-30T04:20:40;25.10;;;3.85;;
66966;SDS011;53900;51.468;-2.586;2022-10-30T04:23:06;16.38;;;3.22;;
66966;SDS011;53900;51.468;-2.586;2022-10-30T04:25:33;19.85;;;3.22;;
66966;SDS011;53900;51.468;-2.586;2022-10-30T04:27:59;15.95;;;2.28;;
66966;SDS011;53900;51.468;-2.586;2022-10-30T04:30:25;23.73;;;2.58;;
66966;SDS011;53900;51.468;-2.586;2022-10-30T04:32:54;22.20;;;3.60;;
66966;SDS011;53900;51.468;-2.586;2022-10-30T04:35:22;23.75;;;3.70;;
66966;SDS011;53900;51.468;-2.586;2022-10-30T04:37:55;20.48;;;2.63;;
66966;SDS011;53900;51.468;-2.586;2022-10-30T04:40:26;23.05;;;2.75;;
66966;SDS011;53900;51.468;-2.586;2022-10-30T04:42:55;20.17;;;2.40;;
66966;SDS011;53900;51.468;-2.586;2022-10-30T04:45:21;17.48;;;2.80;;
66966;SDS011;53900;51.468;-2.586;2022-10-30T04:47:46;25.90;;;2.80;;
66966;SDS011;53900;51.468;-2.586;2022-10-30T04:50:12;23.13;;;2.88;;
66966;SDS011;53900;51.468;-2.586;2022-10-30T04:52:38;18.23;;;3.10;;
66966;SDS011;53900;51.468;-2.586;2022-10-30T04:55:04;20.85;;;2.80;;
66966;SDS011;53900;51.468;-2.586;2022-10-30T04:57:30;17.48;;;2.88;;
66966;SDS011;53900;51.468;-2.586;2022-10-30T04:59:56;14.52;;;2.20;;
66966;SDS011;53900;51.468;-2.586;2022-10-30T05:02:22;16.75;;;2.22;;
66966;SDS011;53900;51.468;-2.586;2022-10-30T05:04:47;17.15;;;2.63;;
66966;SDS011;53900;51.468;-2.586;2022-10-30T05:07:12;15.50;;;2.92;;
66966;SDS011;53900;51.468;-2.586;2022-10-30T05:09:38;17.98;;;3.00;;
66966;SDS011;53900;51.468;-2.586;2022-10-30T05:12:04;14.90;;;2.38;;
66966;SDS011;53900;51.468;-2.586;2022-10-30T05:14:30;25.60;;;3.22;;
66966;SDS011;53900;51.468;-2.586;2022-10-30T05:16:56;19.77;;;2.40;;
66966;SDS011;53900;51.468;-2.586;2022-10-30T05:19:21;22.45;;;3.40;;
66966;SDS011;53900;51.468;-2.586;2022-10-30T05:21:46;18.98;;;2.58;;
66966;SDS011;53900;51.468;-2.586;2022-10-30T05:24:12;24.35;;;3.92;;
66966;SDS011;53900;51.468;-2.586;2022-10-30T05:26:37;24.48;;;4.38;;
66966;SDS011;53900;51.468;-2.586;2022-10-30T05:29:02;15.75;;;3.22;;
66966;SDS011;53900;51.468;-2.586;2022-10-30T05:31:28;23.10;;;3.85;;
66966;SDS011;53900;51.468;-2.586;2022-10-30T05:33:53;22.42;;;3.03;;
66966;SDS011;53900;51.468;-2.586;2022-10-30T05:36:18;22.25;;;2.95;;
66966;SDS011;53900;51.468;-2.586;2022-10-30T05:38:44;16.88;;;2.58;;
66966;SDS011;53900;51.468;-2.586;2022-10-30T05:41:10;31.95;;;2.83;;
66966;SDS011;53900;51.468;-2.586;2022-10-30T05:43:36;15.57;;;1.95;;
66966;SDS011;53900;51.468;-2.586;2022-10-30T05:46:01;24.23;;;2.95;;
66966;SDS011;53900;51.468;-2.586;2022-10-30T05:48:26;12.52;;;2.47;;
66966;SDS011;53900;51.468;-2.586;2022-10-30T05:50:53;27.58;;;4.40;;
66966;SDS011;53900;51.468;-2.586;2022-10-30T05:53:19;19.95;;;3.22;;
66966;SDS011;53900;51.468;-2.586;2022-10-30T05:55:45;21.52;;;3.40;;
66966;SDS011;53900;51.468;-2.586;2022-10-30T05:58:10;26.70;;;3.55;;
66966;SDS011;53900;51.468;-2.586;2022-10-30T06:00:35;19.33;;;3.63;;
66966;SDS011;53900;51.468;-2.586;2022-10-30T06:03:01;22.58;;;3.15;;
66966;SDS011;53900;51.468;-2.586;2022-10-30T06:05:29;17.83;;;3.25;;
66966;SDS011;53900;51.468;-2.586;2022-10-30T06:10:24;22.50;;;3.67;;
66966;SDS011;53900;51.468;-2.586;2022-10-30T06:13:00;15.00;;;2.42;;
66966;SDS011;53900;51.468;-2.586;2022-10-30T06:15:27;19.85;;;3.47;;
66966;SDS011;53900;51.468;-2.586;2022-10-30T06:17:53;21.08;;;3.08;;
66966;SDS011;53900;51.468;-2.586;2022-10-30T06:20:19;13.88;;;2.50;;
66966;SDS011;53900;51.468;-2.586;2022-10-30T06:22:58;22.10;;;3.25;;
66966;SDS011;53900;51.468;-2.586;2022-10-30T06:25:29;16.52;;;2.72;;
66966;SDS011;53900;51.468;-2.586;2022-10-30T06:27:56;19.40;;;2.58;;
66966;SDS011;53900;51.468;-2.586;2022-10-30T06:30:21;20.95;;;2.80;;
66966;SDS011;53900;51.468;-2.586;2022-10-30T06:32:47;24.73;;;3.10;;
66966;SDS011;53900;51.468;-2.586;2022-10-30T06:35:13;15.80;;;3.22;;
66966;SDS011;53900;51.468;-2.586;2022-10-30T06:37:43;17.35;;;2.72;;
66966;SDS011;53900;51.468;-2.586;2022-10-30T06:40:10;20.67;;;3.75;;
66966;SDS011;53900;51.468;-2.586;2022-10-30T06:42:42;18.90;;;2.67;;
66966;SDS011;53900;51.468;-2.586;2022-10-30T06:45:11;21.02;;;2.95;;
66966;SDS011;53900;51.468;-2.586;2022-10-30T06:47:37;24.48;;;3.50;;
66966;SDS011;53900;51.468;-2.586;2022-10-30T06:50:04;23.48;;;2.97;;
66966;SDS011;53900;51.468;-2.586;2022-10-30T06:52:30;19.42;;;3.42;;
66966;SDS011;53900;51.468;-2.586;2022-10-30T06:54:56;32.10;;;3.00;;
66966;SDS011;53900;51.468;-2.586;2022-10-30T06:57:21;18.40;;;3.40;;
66966;SDS011;53900;51.468;-2.586;2022-10-30T06:59:46;16.67;;;2.25;;
66966;SDS011;53900;51.468;-2.586;2022-10-30T07:02:12;16.38;;;2.58;;
66966;SDS011;53900;51.468;-2.586;2022-10-30T07:04:37;24.95;;;2.50;;
66966;SDS011;53900;51.468;-2.586;2022-10-30T07:07:02;19.20;;;2.80;;
66966;SDS011;53900;51.468;-2.586;2022-10-30T07:09:28;23.42;;;2.80;;
66966;SDS011;53900;51.468;-2.586;2022-10-30T07:11:54;16.67;;;2.25;;
66966;SDS011;53900;51.468;-2.586;2022-10-30T07:14:19;19.63;;;2.28;;
66966;SDS011;53900;51.468;-2.586;2022-10-30T07:16:44;19.48;;;2.78;;
66966;SDS011;53900;51.468;-2.586;2022-10-30T07:19:10;18.23;;;2.67;;
66966;SDS011;53900;51.468;-2.586;2022-10-30T07:21:35;20.27;;;2.95;;
66966;SDS011;53900;51.468;-2.586;2022-10-30T07:24:01;14.25;;;2.60;;
66966;SDS011;53900;51.468;-2.586;2022-10-30T07:26:26;21.00;;;3.00;;
66966;SDS011;53900;51.468;-2.586;2022-10-30T07:28:51;16.40;;;2.47;;
66966;SDS011;53900;51.468;-2.586;2022-10-30T07:31:17;23.20;;;2.60;;
66966;SDS011;53900;51.468;-2.586;2022-10-30T07:33:42;20.13;;;3.03;;
66966;SDS011;53900;51.468;-2.586;2022-10-30T07:36:07;21.42;;;2.35;;
66966;SDS011;53900;51.468;-2.586;2022-10-30T07:38:33;18.40;;;3.35;;
66966;SDS011;53900;51.468;-2.586;2022-10-30T07:40:58;22.77;;;2.65;;
66966;SDS011;53900;51.468;-2.586;2022-10-30T07:43:24;25.52;;;3.05;;
66966;SDS011;53900;51.468;-2.586;2022-10-30T07:45:49;30.20;;;3.97;;
66966;SDS011;53900;51.468;-2.586;2022-10-30T07:48:14;21.33;;;2.80;;
66966;SDS011;53900;51.468;-2.586;2022-10-30T07:50:40;18.63;;;3.05;;
66966;SDS011;53900;51.468;-2.586;2022-10-30T07:53:06;13.80;;;2.55;;
66966;SDS011;53900;51.468;-2.586;2022-10-30T07:55:31;19.52;;;2.60;;
66966;SDS011;53900;51.468;-2.586;2022-10-30T07:57:57;21.27;;;2.90;;
66966;SDS011;53900;51.468;-2.586;2022-10-30T08:00:22;23.65;;;3.17;;
66966;SDS011;53900;51.468;-2.586;2022-10-30T08:02:48;24.48;;;2.92;;
66966;SDS011;53900;51.468;-2.586;2022-10-30T08:05:14;20.67;;;2.92;;
66966;SDS011;53900;51.468;-2.586;2022-10-30T08:07:40;23.58;;;3.17;;
66966;SDS011;53900;51.468;-2.586;2022-10-30T08:10:06;18.85;;;2.88;;
66966;SDS011;53900;51.468;-2.586;2022-10-30T08:12:32;24.98;;;3.08;;
66966;SDS011;53900;51.468;-2.586;2022-10-30T08:14:58;20.27;;;2.92;;
66966;SDS011;53900;51.468;-2.586;2022-10-30T08:17:23;20.02;;;2.65;;
66966;SDS011;53900;51.468;-2.586;2022-10-30T08:19:49;24.70;;;3.22;;
66966;SDS011;53900;51.468;-2.586;2022-10-30T08:22:14;23.55;;;3.17;;
66966;SDS011;53900;51.468;-2.586;2022-10-30T08:24:40;20.35;;;3.58;;
66966;SDS011;53900;51.468;-2.586;2022-10-30T08:27:05;26.00;;;3.00;;
66966;SDS011;53900;51.468;-2.586;2022-10-30T08:29:31;15.30;;;3.40;;
66966;SDS011;53900;51.468;-2.586;2022-10-30T08:31:56;21.42;;;2.70;;
66966;SDS011;53900;51.468;-2.586;2022-10-30T08:34:22;16.92;;;2.47;;
66966;SDS011;53900;51.468;-2.586;2022-10-30T08:36:48;26.70;;;2.92;;
66966;SDS011;53900;51.468;-2.586;2022-10-30T08:39:16;22.20;;;3.13;;
66966;SDS011;53900;51.468;-2.586;2022-10-30T08:41:42;19.13;;;2.50;;
66966;SDS011;53900;51.468;-2.586;2022-10-30T08:44:07;18.55;;;3.28;;
66966;SDS011;53900;51.468;-2.586;2022-10-30T08:46:32;21.55;;;3.95;;
66966;SDS011;53900;51.468;-2.586;2022-10-30T08:48:58;26.40;;;2.97;;
66966;SDS011;53900;51.468;-2.586;2022-10-30T08:51:23;19.33;;;3.03;;
66966;SDS011;53900;51.468;-2.586;2022-10-30T08:53:48;22.58;;;3.00;;
66966;SDS011;53900;51.468;-2.586;2022-10-30T08:56:14;24.98;;;2.72;;
66966;SDS011;53900;51.468;-2.586;2022-10-30T08:58:40;32.03;;;4.63;;
66966;SDS011;53900;51.468;-2.586;2022-10-30T09:01:06;21.05;;;2.78;;
66966;SDS011;53900;51.468;-2.586;2022-10-30T09:03:31;16.75;;;2.92;;
66966;SDS011;53900;51.468;-2.586;2022-10-30T09:05:57;19.70;;;2.63;;
66966;SDS011;53900;51.468;-2.586;2022-10-30T09:08:23;19.30;;;3.55;;
66966;SDS011;53900;51.468;-2.586;2022-10-30T09:10:58;18.08;;;2.28;;
66966;SDS011;53900;51.468;-2.586;2022-10-30T09:13:24;22.63;;;2.90;;
66966;SDS011;53900;51.468;-2.586;2022-10-30T09:15:49;19.13;;;2.67;;
66966;SDS011;53900;51.468;-2.586;2022-10-30T09:18:15;19.67;;;2.65;;
66966;SDS011;53900;51.468;-2.586;2022-10-30T09:20:40;13.77;;;2.47;;
66966;SDS011;53900;51.468;-2.586;2022-10-30T09:23:06;19.00;;;2.72;;
66966;SDS011;53900;51.468;-2.586;2022-10-30T09:25:31;19.55;;;2.80;;
66966;SDS011;53900;51.468;-2.586;2022-10-30T09:27:56;15.98;;;2.83;;
66966;SDS011;53900;51.468;-2.586;2022-10-30T09:30:22;19.00;;;3.05;;
66966;SDS011;53900;51.468;-2.586;2022-10-30T09:32:57;19.10;;;3.10;;
66966;SDS011;53900;51.468;-2.586;2022-10-30T09:35:24;21.23;;;3.75;;
66966;SDS011;53900;51.468;-2.586;2022-10-30T09:37:49;24.35;;;4.15;;
66966;SDS011;53900;51.468;-2.586;2022-10-30T09:46:36;19.95;;;2.55;;
66966;SDS011;53900;51.468;-2.586;2022-10-30T09:52:26;17.25;;;3.03;;
66966;SDS011;53900;51.468;-2.586;2022-10-30T09:54:22;23.15;;;3.80;;
66966;SDS011;53900;51.468;-2.586;2022-10-30T09:59:58;17.85;;;2.80;;
66966;SDS011;53900;51.468;-2.586;2022-10-30T10:08:17;24.02;;;3.47;;
66966;SDS011;53900;51.468;-2.586;2022-10-30T10:10:46;15.73;;;2.78;;
66966;SDS011;53900;51.468;-2.586;2022-10-30T10:15:50;22.95;;;2.70;;
66966;SDS011;53900;51.468;-2.586;2022-10-30T10:18:25;13.85;;;2.60;;
66966;SDS011;53900;51.468;-2.586;2022-10-30T10:20:55;18.30;;;2.97;;
66966;SDS011;53900;51.468;-2.586;2022-10-30T10:26:18;16.88;;;2.75;;
66966;SDS011;53900;51.468;-2.586;2022-10-30T10:31:30;14.32;;;2.50;;
66966;SDS011;53900;51.468;-2.586;2022-10-30T10:42:12;12.20;;;2.25;;
66966;SDS011;53900;51.468;-2.586;2022-10-30T10:44:45;19.55;;;2.70;;
66966;SDS011;53900;51.468;-2.586;2022-10-30T10:47:29;13.40;;;2.28;;
66966;SDS011;53900;51.468;-2.586;2022-10-30T10:50:31;13.73;;;3.05;;
66966;SDS011;53900;51.468;-2.586;2022-10-30T10:53:04;14.18;;;2.30;;
66966;SDS011;53900;51.468;-2.586;2022-10-30T10:55:36;20.23;;;2.85;;
66966;SDS011;53900;51.468;-2.586;2022-10-30T10:58:09;14.88;;;2.60;;
66966;SDS011;53900;51.468;-2.586;2022-10-30T11:00:39;10.48;;;1.95;;
66966;SDS011;53900;51.468;-2.586;2022-10-30T11:10:51;14.43;;;3.35;;
66966;SDS011;53900;51.468;-2.586;2022-10-30T11:13:28;12.30;;;2.22;;
66966;SDS011;53900;51.468;-2.586;2022-10-30T11:18:53;14.27;;;2.40;;
66966;SDS011;53900;51.468;-2.586;2022-10-30T11:21:24;16.98;;;2.92;;
66966;SDS011;53900;51.468;-2.586;2022-10-30T11:23:50;16.80;;;2.28;;
66966;SDS011;53900;51.468;-2.586;2022-10-30T11:28:46;15.98;;;2.60;;
66966;SDS011;53900;51.468;-2.586;2022-10-30T11:33:58;20.45;;;3.00;;
66966;SDS011;53900;51.468;-2.586;2022-10-30T11:36:24;19.33;;;2.80;;
66966;SDS011;53900;51.468;-2.586;2022-10-30T11:38:50;14.13;;;2.35;;
66966;SDS011;53900;51.468;-2.586;2022-10-30T11:41:16;16.13;;;3.13;;
66966;SDS011;53900;51.468;-2.586;2022-10-30T11:43:42;12.63;;;2.53;;
66966;SDS011;53900;51.468;-2.586;2022-10-30T11:46:08;20.80;;;2.80;;
66966;SDS011;53900;51.468;-2.586;2022-10-30T11:48:37;10.82;;;2.42;;
66966;SDS011;53900;51.468;-2.586;2022-10-30T11:51:04;23.35;;;2.80;;
66966;SDS011;53900;51.468;-2.586;2022-10-30T11:53:31;13.70;;;2.28;;
66966;SDS011;53900;51.468;-2.586;2022-10-30T11:56:00;11.20;;;2.40;;
66966;SDS011;53900;51.468;-2.586;2022-10-30T11:58:30;8.18;;;1.90;;
66966;SDS011;53900;51.468;-2.586;2022-10-30T12:01:03;14.02;;;2.10;;
66966;SDS011;53900;51.468;-2.586;2022-10-30T12:03:37;11.80;;;1.85;;
66966;SDS011;53900;51.468;-2.586;2022-10-30T12:11:38;13.70;;;2.30;;
66966;SDS011;53900;51.468;-2.586;2022-10-30T12:14:12;10.90;;;2.00;;
66966;SDS011;53900;51.468;-2.586;2022-10-30T12:16:43;8.02;;;1.60;;
66966;SDS011;53900;51.468;-2.586;2022-10-30T12:19:11;8.75;;;1.73;;
66966;SDS011;53900;51.468;-2.586;2022-10-30T12:21:42;12.48;;;2.25;;
66966;SDS011;53900;51.468;-2.586;2022-10-30T12:24:15;5.50;;;1.23;;
66966;SDS011;53900;51.468;-2.586;2022-10-30T12:27:04;8.18;;;2.40;;
66966;SDS011;53900;51.468;-2.586;2022-10-30T12:29:38;3.92;;;1.33;;
66966;SDS011;53900;51.468;-2.586;2022-10-30T12:32:16;2.20;;;0.98;;
66966;SDS011;53900;51.468;-2.586;2022-10-30T12:34:44;1.25;;;0.60;;
66966;SDS011;53900;51.468;-2.586;2022-10-30T12:37:17;1.90;;;0.85;;
66966;SDS011;53900;51.468;-2.586;2022-10-30T12:42:14;4.50;;;1.33;;
66966;SDS011;53900;51.468;-2.586;2022-10-30T12:50:26;4.55;;;1.15;;
66966;SDS011;53900;51.468;-2.586;2022-10-30T12:52:59;5.72;;;0.90;;
66966;SDS011;53900;51.468;-2.586;2022-10-30T12:55:34;4.05;;;1.02;;
66966;SDS011;53900;51.468;-2.586;2022-10-30T12:58:04;3.70;;;0.73;;
66966;SDS011;53900;51.468;-2.586;2022-10-30T13:00:54;2.28;;;0.68;;
66966;SDS011;53900;51.468;-2.586;2022-10-30T13:03:23;5.78;;;0.80;;
66966;SDS011;53900;51.468;-2.586;2022-10-30T13:05:53;6.97;;;1.00;;
66966;SDS011;53900;51.468;-2.586;2022-10-30T13:10:51;1.73;;;0.73;;
66966;SDS011;53900;51.468;-2.586;2022-10-30T13:13:28;4.75;;;0.65;;
66966;SDS011;53900;51.468;-2.586;2022-10-30T13:16:00;2.15;;;0.82;;
66966;SDS011;53900;51.468;-2.586;2022-10-30T13:18:27;5.53;;;1.20;;
66966;SDS011;53900;51.468;-2.586;2022-10-30T13:26:32;3.03;;;1.17;;
66966;SDS011;53900;51.468;-2.586;2022-10-30T13:32:16;7.93;;;1.30;;
66966;SDS011;53900;51.468;-2.586;2022-10-30T13:40:45;6.72;;;1.40;;
66966;SDS011;53900;51.468;-2.586;2022-10-30T13:54:14;10.35;;;2.05;;
66966;SDS011;53900;51.468;-2.586;2022-10-30T13:56:49;9.82;;;2.08;;
66966;SDS011;53900;51.468;-2.586;2022-10-30T13:59:41;7.30;;;1.63;;
66966;SDS011;53900;51.468;-2.586;2022-10-30T14:02:15;8.55;;;1.77;;
66966;SDS011;53900;51.468;-2.586;2022-10-30T14:04:58;11.38;;;1.88;;
66966;SDS011;53900;51.468;-2.586;2022-10-30T14:07:41;11.65;;;1.80;;
66966;SDS011;53900;51.468;-2.586;2022-10-30T14:10:31;12.27;;;1.92;;
66966;SDS011;53900;51.468;-2.586;2022-10-30T14:13:14;11.13;;;1.88;;
66966;SDS011;53900;51.468;-2.586;2022-10-30T14:15:45;15.35;;;1.83;;
66966;SDS011;53900;51.468;-2.586;2022-10-30T14:20:55;13.25;;;2.30;;
66966;SDS011;53900;51.468;-2.586;2022-10-30T14:23:22;11.27;;;2.08;;
66966;SDS011;53900;51.468;-2.586;2022-10-30T14:28:26;14.45;;;2.67;;
66966;SDS011;53900;51.468;-2.586;2022-10-30T14:36:20;16.05;;;2.38;;
66966;SDS011;53900;51.468;-2.586;2022-10-30T14:38:58;8.25;;;2.28;;
66966;SDS011;53900;51.468;-2.586;2022-10-30T14:41:30;13.30;;;2.58;;
66966;SDS011;53900;51.468;-2.586;2022-10-30T14:49:44;25.17;;;2.50;;
66966;SDS011;53900;51.468;-2.586;2022-10-30T15:02:56;16.67;;;2.70;;
66966;SDS011;53900;51.468;-2.586;2022-10-30T15:08:40;19.88;;;3.00;;
66966;SDS011;53900;51.468;-2.586;2022-10-30T15:14:03;11.65;;;2.65;;
66966;SDS011;53900;51.468;-2.586;2022-10-30T15:16:31;14.82;;;2.65;;
66966;SDS011;53900;51.468;-2.586;2022-10-30T15:19:07;12.50;;;2.40;;
66966;SDS011;53900;51.468;-2.586;2022-10-30T15:21:37;18.45;;;2.97;;
66966;SDS011;53900;51.468;-2.586;2022-10-30T15:24:10;15.02;;;2.33;;
66966;SDS011;53900;51.468;-2.586;2022-10-30T15:26:38;19.63;;;3.00;;
66966;SDS011;53900;51.468;-2.586;2022-10-30T15:29:04;11.77;;;2.55;;
66966;SDS011;53900;51.468;-2.586;2022-10-30T15:31:30;20.13;;;2.72;;
66966;SDS011;53900;51.468;-2.586;2022-10-30T15:33:57;12.45;;;2.85;;
66966;SDS011;53900;51.468;-2.586;2022-10-30T15:36:33;16.77;;;2.63;;
66966;SDS011;53900;51.468;-2.586;2022-10-30T15:39:11;13.00;;;2.75;;
66966;SDS011;53900;51.468;-2.586;2022-10-30T15:41:59;15.98;;;3.20;;
66966;SDS011;53900;51.468;-2.586;2022-10-30T15:47:00;20.60;;;3.08;;
66966;SDS011;53900;51.468;-2.586;2022-10-30T15:49:30;19.40;;;3.30;;
66966;SDS011;53900;51.468;-2.586;2022-10-30T15:51:58;22.50;;;3.33;;
66966;SDS011;53900;51.468;-2.586;2022-10-30T15:54:24;21.48;;;2.78;;
66966;SDS011;53900;51.468;-2.586;2022-10-30T15:56:52;15.13;;;3.75;;
66966;SDS011;53900;51.468;-2.586;2022-10-30T15:59:24;13.70;;;2.40;;
66966;SDS011;53900;51.468;-2.586;2022-10-30T16:01:54;11.25;;;2.70;;
66966;SDS011;53900;51.468;-2.586;2022-10-30T16:04:22;23.42;;;3.03;;
66966;SDS011;53900;51.468;-2.586;2022-10-30T16:07:15;11.15;;;2.80;;
66966;SDS011;53900;51.468;-2.586;2022-10-30T16:09:58;16.10;;;2.58;;
66966;SDS011;53900;51.468;-2.586;2022-10-30T16:12:25;17.30;;;3.10;;
66966;SDS011;53900;51.468;-2.586;2022-10-30T16:14:55;16.55;;;2.63;;
66966;SDS011;53900;51.468;-2.586;2022-10-30T16:17:22;14.25;;;2.15;;
66966;SDS011;53900;51.468;-2.586;2022-10-30T16:19:49;12.23;;;2.40;;
66966;SDS011;53900;51.468;-2.586;2022-10-30T16:22:23;14.05;;;2.67;;
66966;SDS011;53900;51.468;-2.586;2022-10-30T16:24:51;18.48;;;2.83;;
66966;SDS011;53900;51.468;-2.586;2022-10-30T16:27:18;15.75;;;2.75;;
66966;SDS011;53900;51.468;-2.586;2022-10-30T16:29:45;16.38;;;2.47;;
66966;SDS011;53900;51.468;-2.586;2022-10-30T16:32:20;17.33;;;2.95;;
66966;SDS011;53900;51.468;-2.586;2022-10-30T16:34:47;14.07;;;2.53;;
66966;SDS011;53900;51.468;-2.586;2022-10-30T16:37:16;13.98;;;2.33;;
66966;SDS011;53900;51.468;-2.586;2022-10-30T16:42:43;17.90;;;3.28;;
66966;SDS011;53900;51.468;-2.586;2022-10-30T16:47:39;15.77;;;3.15;;
66966;SDS011;53900;51.468;-2.586;2022-10-30T16:50:09;21.75;;;3.63;;
66966;SDS011;53900;51.468;-2.586;2022-10-30T16:52:39;15.95;;;3.33;;
66966;SDS011;53900;51.468;-2.586;2022-10-30T16:57:32;16.33;;;2.78;;
66966;SDS011;53900;51.468;-2.586;2022-10-30T17:00:00;17.98;;;3.33;;
66966;SDS011;53900;51.468;-2.586;2022-10-30T17:02:28;17.63;;;3.38;;
66966;SDS011;53900;51.468;-2.586;2022-10-30T17:18:40;20.48;;;3.38;;
66966;SDS011;53900;51.468;-2.586;2022-10-30T17:23:34;21.45;;;3.35;;
66966;SDS011;53900;51.468;-2.586;2022-10-30T17:26:06;23.08;;;3.55;;
66966;SDS011;53900;51.468;-2.586;2022-10-30T17:28:33;22.20;;;4.18;;
66966;SDS011;53900;51.468;-2.586;2022-10-30T17:33:46;19.25;;;3.40;;
66966;SDS011;53900;51.468;-2.586;2022-10-30T17:36:30;21.83;;;3.70;;
66966;SDS011;53900;51.468;-2.586;2022-10-30T17:38:56;24.17;;;3.03;;
66966;SDS011;53900;51.468;-2.586;2022-10-30T17:41:21;20.23;;;3.40;;
66966;SDS011;53900;51.468;-2.586;2022-10-30T17:43:47;14.75;;;3.00;;
66966;SDS011;53900;51.468;-2.586;2022-10-30T17:46:15;24.00;;;3.38;;